sensor_id;sensor_type;location;lat;lon;timestamp;P1;durP1;ratioP1;P2;durP2;ratioP2
69414;SDS011;56608;43.530;-5.652;2023-02-13T00:00:15;14.50;;;7.70;;
69414;SDS011;56608;43.530;-5.652;2023-02-13T00:01:18;14.85;;;8.13;;
69414;SDS011;56608;43.530;-5.652;2023-02-13T00:02:20;13.18;;;8.43;;
69414;SDS011;56608;43.530;-5.652;2023-02-13T00:03:21;11.00;;;7.30;;
69414;SDS011;56608;43.530;-5.652;2023-02-13T00:04:22;13.85;;;7.30;;
69414;SDS011;56608;43.530;-5.652;2023-02-13T00:05:24;18.85;;;8.35;;
69414;SDS011;56608;43.530;-5.652;2023-02-13T00:06:25;13.62;;;7.43;;
69414;SDS011;56608;43.530;-5.652;2023-02-13T00:07:27;13.95;;;7.70;;
69414;SDS011;56608;43.530;-5.652;2023-02-13T00:08:28;12.93;;;7.00;;
69414;SDS011;56608;43.530;-5.652;2023-02-13T00:09:29;15.25;;;7.85;;
69414;SDS011;56608;43.530;-5.652;2023-02-13T00:10:31;13.30;;;8.02;;
69414;SDS011;56608;43.530;-5.652;2023-02-13T00:11:32;19.95;;;8.18;;
69414;SDS011;56608;43.530;-5.652;2023-02-13T00:12:34;15.75;;;7.68;;
69414;SDS011;56608;43.530;-5.652;2023-02-13T00:13:35;16.70;;;7.47;;
69414;SDS011;56608;43.530;-5.652;2023-02-13T00:14:37;15.05;;;8.10;;
69414;SDS011;56608;43.530;-5.652;2023-02-13T00:15:39;13.68;;;7.65;;
69414;SDS011;56608;43.530;-5.652;2023-02-13T00:16:41;12.48;;;6.85;;
69414;SDS011;56608;43.530;-5.652;2023-02-13T00:17:42;10.15;;;6.40;;
69414;SDS011;56608;43.530;-5.652;2023-02-13T00:18:43;13.15;;;6.82;;
69414;SDS011;56608;43.530;-5.652;2023-02-13T00:19:45;10.95;;;6.57;;
69414;SDS011;56608;43.530;-5.652;2023-02-13T00:20:55;14.00;;;6.65;;
69414;SDS011;56608;43.530;-5.652;2023-02-13T00:21:57;11.65;;;6.03;;
69414;SDS011;56608;43.530;-5.652;2023-02-13T00:22:59;10.40;;;6.22;;
69414;SDS011;56608;43.530;-5.652;2023-02-13T00:24:00;11.80;;;6.50;;
69414;SDS011;56608;43.530;-5.652;2023-02-13T00:25:02;10.77;;;6.47;;
69414;SDS011;56608;43.530;-5.652;2023-02-13T00:26:06;11.15;;;5.62;;
69414;SDS011;56608;43.530;-5.652;2023-02-13T00:27:09;12.05;;;5.72;;
69414;SDS011;56608;43.530;-5.652;2023-02-13T00:28:11;9.70;;;5.10;;
69414;SDS011;56608;43.530;-5.652;2023-02-13T00:29:12;11.10;;;5.65;;
69414;SDS011;56608;43.530;-5.652;2023-02-13T00:30:14;9.60;;;5.10;;
69414;SDS011;56608;43.530;-5.652;2023-02-13T00:31:17;12.98;;;5.68;;
69414;SDS011;56608;43.530;-5.652;2023-02-13T00:32:20;15.35;;;5.75;;
69414;SDS011;56608;43.530;-5.652;2023-02-13T00:33:21;14.02;;;6.50;;
69414;SDS011;56608;43.530;-5.652;2023-02-13T00:34:22;9.15;;;6.00;;
69414;SDS011;56608;43.530;-5.652;2023-02-13T00:35:24;12.73;;;6.30;;
69414;SDS011;56608;43.530;-5.652;2023-02-13T00:36:25;14.80;;;6.32;;
69414;SDS011;56608;43.530;-5.652;2023-02-13T00:37:27;11.23;;;6.18;;
69414;SDS011;56608;43.530;-5.652;2023-02-13T00:38:28;11.27;;;6.27;;
69414;SDS011;56608;43.530;-5.652;2023-02-13T00:39:30;9.15;;;5.45;;
69414;SDS011;56608;43.530;-5.652;2023-02-13T00:40:31;11.02;;;6.25;;
69414;SDS011;56608;43.530;-5.652;2023-02-13T00:41:33;8.27;;;4.93;;
69414;SDS011;56608;43.530;-5.652;2023-02-13T00:42:34;8.88;;;5.28;;
69414;SDS011;56608;43.530;-5.652;2023-02-13T00:43:35;13.20;;;5.40;;
69414;SDS011;56608;43.530;-5.652;2023-02-13T00:45:38;9.90;;;4.80;;
69414;SDS011;56608;43.530;-5.652;2023-02-13T00:46:39;7.57;;;5.05;;
69414;SDS011;56608;43.530;-5.652;2023-02-13T00:47:41;9.35;;;5.10;;
69414;SDS011;56608;43.530;-5.652;2023-02-13T00:48:42;11.65;;;5.40;;
69414;SDS011;56608;43.530;-5.652;2023-02-13T00:49:45;8.98;;;4.43;;
69414;SDS011;56608;43.530;-5.652;2023-02-13T00:50:46;9.07;;;4.97;;
69414;SDS011;56608;43.530;-5.652;2023-02-13T00:52:48;7.23;;;4.20;;
69414;SDS011;56608;43.530;-5.652;2023-02-13T00:53:50;7.37;;;4.12;;
69414;SDS011;56608;43.530;-5.652;2023-02-13T00:54:51;9.70;;;4.90;;
69414;SDS011;56608;43.530;-5.652;2023-02-13T00:55:52;9.07;;;4.90;;
69414;SDS011;56608;43.530;-5.652;2023-02-13T00:56:53;10.80;;;4.85;;
69414;SDS011;56608;43.530;-5.652;2023-02-13T00:57:55;8.90;;;5.32;;
69414;SDS011;56608;43.530;-5.652;2023-02-13T00:58:56;11.27;;;4.93;;
69414;SDS011;56608;43.530;-5.652;2023-02-13T00:59:58;8.70;;;4.95;;
69414;SDS011;56608;43.530;-5.652;2023-02-13T01:00:58;10.50;;;5.40;;
69414;SDS011;56608;43.530;-5.652;2023-02-13T01:02:00;11.52;;;5.30;;
69414;SDS011;56608;43.530;-5.652;2023-02-13T01:03:02;10.32;;;5.20;;
69414;SDS011;56608;43.530;-5.652;2023-02-13T01:04:02;12.15;;;5.30;;
69414;SDS011;56608;43.530;-5.652;2023-02-13T01:05:04;7.90;;;4.93;;
69414;SDS011;56608;43.530;-5.652;2023-02-13T01:07:07;7.63;;;4.60;;
69414;SDS011;56608;43.530;-5.652;2023-02-13T01:08:07;8.50;;;4.33;;
69414;SDS011;56608;43.530;-5.652;2023-02-13T01:09:09;7.82;;;4.32;;
69414;SDS011;56608;43.530;-5.652;2023-02-13T01:10:11;6.10;;;3.80;;
69414;SDS011;56608;43.530;-5.652;2023-02-13T01:11:14;6.35;;;3.50;;
69414;SDS011;56608;43.530;-5.652;2023-02-13T01:12:15;6.68;;;3.58;;
69414;SDS011;56608;43.530;-5.652;2023-02-13T01:13:17;4.97;;;3.17;;
69414;SDS011;56608;43.530;-5.652;2023-02-13T01:14:18;6.15;;;3.10;;
69414;SDS011;56608;43.530;-5.652;2023-02-13T01:15:20;7.03;;;3.57;;
69414;SDS011;56608;43.530;-5.652;2023-02-13T01:16:22;6.82;;;3.67;;
69414;SDS011;56608;43.530;-5.652;2023-02-13T01:17:23;6.90;;;3.17;;
69414;SDS011;56608;43.530;-5.652;2023-02-13T01:18:24;6.97;;;3.62;;
69414;SDS011;56608;43.530;-5.652;2023-02-13T01:19:26;6.70;;;3.70;;
69414;SDS011;56608;43.530;-5.652;2023-02-13T01:20:28;8.15;;;3.72;;
69414;SDS011;56608;43.530;-5.652;2023-02-13T01:21:29;6.22;;;3.72;;
69414;SDS011;56608;43.530;-5.652;2023-02-13T01:22:30;9.55;;;3.90;;
69414;SDS011;56608;43.530;-5.652;2023-02-13T01:23:33;6.97;;;3.62;;
69414;SDS011;56608;43.530;-5.652;2023-02-13T01:24:36;8.43;;;3.95;;
69414;SDS011;56608;43.530;-5.652;2023-02-13T01:25:41;6.18;;;3.35;;
69414;SDS011;56608;43.530;-5.652;2023-02-13T01:26:43;7.68;;;4.30;;
69414;SDS011;56608;43.530;-5.652;2023-02-13T01:27:44;7.60;;;3.85;;
69414;SDS011;56608;43.530;-5.652;2023-02-13T01:28:46;6.97;;;3.97;;
69414;SDS011;56608;43.530;-5.652;2023-02-13T01:29:47;6.15;;;4.25;;
69414;SDS011;56608;43.530;-5.652;2023-02-13T01:30:51;6.80;;;4.00;;
69414;SDS011;56608;43.530;-5.652;2023-02-13T01:31:56;8.40;;;4.28;;
69414;SDS011;56608;43.530;-5.652;2023-02-13T01:32:57;7.33;;;4.33;;
69414;SDS011;56608;43.530;-5.652;2023-02-13T01:33:59;7.57;;;4.03;;
69414;SDS011;56608;43.530;-5.652;2023-02-13T01:35:00;8.65;;;4.47;;
69414;SDS011;56608;43.530;-5.652;2023-02-13T01:36:07;8.07;;;4.27;;
69414;SDS011;56608;43.530;-5.652;2023-02-13T01:37:10;9.88;;;4.82;;
69414;SDS011;56608;43.530;-5.652;2023-02-13T01:39:13;8.15;;;4.15;;
69414;SDS011;56608;43.530;-5.652;2023-02-13T01:40:14;10.07;;;4.97;;
69414;SDS011;56608;43.530;-5.652;2023-02-13T01:41:17;10.10;;;4.95;;
69414;SDS011;56608;43.530;-5.652;2023-02-13T01:42:24;9.75;;;5.50;;
69414;SDS011;56608;43.530;-5.652;2023-02-13T01:44:54;11.20;;;4.87;;
69414;SDS011;56608;43.530;-5.652;2023-02-13T01:46:00;7.90;;;4.80;;
69414;SDS011;56608;43.530;-5.652;2023-02-13T01:47:02;12.10;;;5.15;;
69414;SDS011;56608;43.530;-5.652;2023-02-13T01:48:06;8.97;;;5.20;;
69414;SDS011;56608;43.530;-5.652;2023-02-13T01:49:13;11.45;;;5.68;;
69414;SDS011;56608;43.530;-5.652;2023-02-13T01:50:23;11.65;;;5.20;;
69414;SDS011;56608;43.530;-5.652;2023-02-13T01:51:37;10.00;;;4.70;;
69414;SDS011;56608;43.530;-5.652;2023-02-13T01:52:41;11.63;;;5.45;;
69414;SDS011;56608;43.530;-5.652;2023-02-13T01:53:52;9.95;;;5.12;;
69414;SDS011;56608;43.530;-5.652;2023-02-13T01:55:00;9.93;;;5.50;;
69414;SDS011;56608;43.530;-5.652;2023-02-13T01:56:04;12.18;;;5.62;;
69414;SDS011;56608;43.530;-5.652;2023-02-13T01:57:13;11.20;;;5.25;;
69414;SDS011;56608;43.530;-5.652;2023-02-13T01:58:20;11.57;;;6.03;;
69414;SDS011;56608;43.530;-5.652;2023-02-13T01:59:28;11.15;;;5.12;;
69414;SDS011;56608;43.530;-5.652;2023-02-13T02:00:37;10.40;;;5.05;;
69414;SDS011;56608;43.530;-5.652;2023-02-13T02:01:39;8.70;;;5.00;;
69414;SDS011;56608;43.530;-5.652;2023-02-13T02:02:43;10.02;;;5.20;;
69414;SDS011;56608;43.530;-5.652;2023-02-13T02:03:56;8.82;;;5.20;;
69414;SDS011;56608;43.530;-5.652;2023-02-13T02:05:10;9.55;;;5.62;;
69414;SDS011;56608;43.530;-5.652;2023-02-13T02:06:22;10.57;;;6.37;;
69414;SDS011;56608;43.530;-5.652;2023-02-13T02:07:27;11.93;;;5.78;;
69414;SDS011;56608;43.530;-5.652;2023-02-13T02:08:30;9.20;;;5.20;;
69414;SDS011;56608;43.530;-5.652;2023-02-13T02:09:33;9.00;;;5.22;;
69414;SDS011;56608;43.530;-5.652;2023-02-13T02:10:37;9.50;;;5.20;;
69414;SDS011;56608;43.530;-5.652;2023-02-13T02:13:06;7.03;;;4.35;;
69414;SDS011;56608;43.530;-5.652;2023-02-13T02:14:11;11.88;;;4.90;;
69414;SDS011;56608;43.530;-5.652;2023-02-13T02:15:12;6.97;;;4.73;;
69414;SDS011;56608;43.530;-5.652;2023-02-13T02:16:14;8.20;;;4.82;;
69414;SDS011;56608;43.530;-5.652;2023-02-13T02:17:15;10.07;;;5.22;;
69414;SDS011;56608;43.530;-5.652;2023-02-13T02:18:19;9.38;;;4.82;;
69414;SDS011;56608;43.530;-5.652;2023-02-13T02:27:39;8.18;;;5.18;;
69414;SDS011;56608;43.530;-5.652;2023-02-13T02:30:40;8.68;;;4.72;;
69414;SDS011;56608;43.530;-5.652;2023-02-13T02:31:52;10.00;;;4.70;;
69414;SDS011;56608;43.530;-5.652;2023-02-13T02:33:02;8.10;;;4.72;;
69414;SDS011;56608;43.530;-5.652;2023-02-13T02:35:34;9.63;;;5.03;;
69414;SDS011;56608;43.530;-5.652;2023-02-13T02:40:49;8.98;;;4.20;;
69414;SDS011;56608;43.530;-5.652;2023-02-13T02:45:55;7.45;;;4.12;;
69414;SDS011;56608;43.530;-5.652;2023-02-13T02:48:55;6.47;;;3.33;;
69414;SDS011;56608;43.530;-5.652;2023-02-13T02:53:36;7.22;;;3.62;;
69414;SDS011;56608;43.530;-5.652;2023-02-13T02:54:44;7.82;;;3.90;;
69414;SDS011;56608;43.530;-5.652;2023-02-13T02:56:11;6.93;;;3.40;;
69414;SDS011;56608;43.530;-5.652;2023-02-13T02:57:26;6.55;;;3.80;;
69414;SDS011;56608;43.530;-5.652;2023-02-13T03:00:18;9.43;;;3.60;;
69414;SDS011;56608;43.530;-5.652;2023-02-13T03:01:40;9.40;;;4.00;;
69414;SDS011;56608;43.530;-5.652;2023-02-13T03:03:04;8.70;;;4.05;;
69414;SDS011;56608;43.530;-5.652;2023-02-13T03:04:31;6.32;;;3.20;;
69414;SDS011;56608;43.530;-5.652;2023-02-13T03:05:54;6.40;;;3.58;;
69414;SDS011;56608;43.530;-5.652;2023-02-13T03:07:13;7.03;;;3.60;;
69414;SDS011;56608;43.530;-5.652;2023-02-13T03:08:16;7.95;;;3.42;;
69414;SDS011;56608;43.530;-5.652;2023-02-13T03:09:39;8.23;;;3.17;;
69414;SDS011;56608;43.530;-5.652;2023-02-13T03:11:03;8.82;;;4.00;;
69414;SDS011;56608;43.530;-5.652;2023-02-13T03:12:25;5.68;;;3.62;;
69414;SDS011;56608;43.530;-5.652;2023-02-13T03:13:51;4.75;;;3.20;;
69414;SDS011;56608;43.530;-5.652;2023-02-13T03:14:53;7.28;;;3.40;;
69414;SDS011;56608;43.530;-5.652;2023-02-13T03:15:56;6.80;;;3.42;;
69414;SDS011;56608;43.530;-5.652;2023-02-13T03:17:18;5.07;;;3.25;;
69414;SDS011;56608;43.530;-5.652;2023-02-13T03:18:39;8.10;;;2.90;;
69414;SDS011;56608;43.530;-5.652;2023-02-13T03:23:16;5.82;;;2.90;;
69414;SDS011;56608;43.530;-5.652;2023-02-13T03:28:16;7.93;;;2.92;;
69414;SDS011;56608;43.530;-5.652;2023-02-13T03:30:06;5.28;;;3.20;;
69414;SDS011;56608;43.530;-5.652;2023-02-13T03:31:16;4.05;;;2.60;;
69414;SDS011;56608;43.530;-5.652;2023-02-13T03:32:25;5.55;;;3.10;;
69414;SDS011;56608;43.530;-5.652;2023-02-13T03:33:39;7.85;;;3.03;;
69414;SDS011;56608;43.530;-5.652;2023-02-13T03:35:13;4.30;;;2.90;;
69414;SDS011;56608;43.530;-5.652;2023-02-13T03:36:55;6.05;;;3.00;;
69414;SDS011;56608;43.530;-5.652;2023-02-13T03:39:43;8.45;;;2.65;;
69414;SDS011;56608;43.530;-5.652;2023-02-13T03:43:41;4.32;;;3.25;;
69414;SDS011;56608;43.530;-5.652;2023-02-13T03:45:13;8.40;;;2.85;;
69414;SDS011;56608;43.530;-5.652;2023-02-13T03:46:38;5.90;;;2.70;;
69414;SDS011;56608;43.530;-5.652;2023-02-13T03:47:42;6.05;;;2.75;;
69414;SDS011;56608;43.530;-5.652;2023-02-13T03:48:45;4.18;;;2.70;;
69414;SDS011;56608;43.530;-5.652;2023-02-13T03:50:06;7.28;;;2.55;;
69414;SDS011;56608;43.530;-5.652;2023-02-13T03:51:09;5.68;;;2.53;;
69414;SDS011;56608;43.530;-5.652;2023-02-13T03:52:23;6.60;;;2.60;;
69414;SDS011;56608;43.530;-5.652;2023-02-13T03:53:26;8.82;;;2.80;;
69414;SDS011;56608;43.530;-5.652;2023-02-13T03:54:32;7.68;;;2.70;;
69414;SDS011;56608;43.530;-5.652;2023-02-13T03:55:53;4.50;;;2.03;;
69414;SDS011;56608;43.530;-5.652;2023-02-13T03:57:14;4.53;;;2.42;;
69414;SDS011;56608;43.530;-5.652;2023-02-13T03:58:40;5.40;;;2.83;;
69414;SDS011;56608;43.530;-5.652;2023-02-13T04:00:06;5.05;;;2.12;;
69414;SDS011;56608;43.530;-5.652;2023-02-13T04:01:11;5.53;;;2.40;;
69414;SDS011;56608;43.530;-5.652;2023-02-13T04:02:18;4.78;;;2.33;;
69414;SDS011;56608;43.530;-5.652;2023-02-13T04:03:27;6.10;;;2.28;;
69414;SDS011;56608;43.530;-5.652;2023-02-13T04:05:53;4.45;;;2.30;;
69414;SDS011;56608;43.530;-5.652;2023-02-13T04:07:06;11.57;;;3.00;;
69414;SDS011;56608;43.530;-5.652;2023-02-13T04:08:11;4.50;;;2.22;;
69414;SDS011;56608;43.530;-5.652;2023-02-13T04:09:13;7.65;;;2.55;;
69414;SDS011;56608;43.530;-5.652;2023-02-13T04:10:15;4.50;;;2.30;;
69414;SDS011;56608;43.530;-5.652;2023-02-13T04:11:26;6.25;;;2.25;;
69414;SDS011;56608;43.530;-5.652;2023-02-13T04:14:12;3.50;;;2.17;;
69414;SDS011;56608;43.530;-5.652;2023-02-13T04:16:34;4.37;;;2.30;;
69414;SDS011;56608;43.530;-5.652;2023-02-13T04:18:23;5.37;;;2.30;;
69414;SDS011;56608;43.530;-5.652;2023-02-13T04:19:08;4.75;;;2.28;;
69414;SDS011;56608;43.530;-5.652;2023-02-13T04:20:11;3.42;;;2.15;;
69414;SDS011;56608;43.530;-5.652;2023-02-13T04:21:13;8.20;;;2.10;;
69414;SDS011;56608;43.530;-5.652;2023-02-13T04:22:14;6.45;;;2.58;;
69414;SDS011;56608;43.530;-5.652;2023-02-13T04:23:15;4.35;;;2.10;;
69414;SDS011;56608;43.530;-5.652;2023-02-13T04:24:17;6.57;;;2.35;;
69414;SDS011;56608;43.530;-5.652;2023-02-13T04:25:18;13.25;;;5.97;;
69414;SDS011;56608;43.530;-5.652;2023-02-13T04:26:21;6.72;;;3.20;;
69414;SDS011;56608;43.530;-5.652;2023-02-13T04:27:24;5.22;;;2.40;;
69414;SDS011;56608;43.530;-5.652;2023-02-13T04:28:28;6.00;;;2.28;;
69414;SDS011;56608;43.530;-5.652;2023-02-13T04:29:30;7.62;;;2.62;;
69414;SDS011;56608;43.530;-5.652;2023-02-13T04:30:30;9.13;;;2.43;;
69414;SDS011;56608;43.530;-5.652;2023-02-13T04:31:32;7.18;;;2.72;;
69414;SDS011;56608;43.530;-5.652;2023-02-13T04:32:34;3.30;;;1.87;;
69414;SDS011;56608;43.530;-5.652;2023-02-13T04:33:36;4.25;;;2.30;;
69414;SDS011;56608;43.530;-5.652;2023-02-13T04:34:37;4.12;;;1.70;;
69414;SDS011;56608;43.530;-5.652;2023-02-13T04:35:39;5.60;;;2.17;;
69414;SDS011;56608;43.530;-5.652;2023-02-13T04:36:40;4.00;;;1.73;;
69414;SDS011;56608;43.530;-5.652;2023-02-13T04:37:41;4.28;;;1.95;;
69414;SDS011;56608;43.530;-5.652;2023-02-13T04:38:42;5.85;;;2.00;;
69414;SDS011;56608;43.530;-5.652;2023-02-13T04:39:45;3.03;;;1.80;;
69414;SDS011;56608;43.530;-5.652;2023-02-13T04:40:46;2.95;;;2.10;;
69414;SDS011;56608;43.530;-5.652;2023-02-13T04:41:48;6.95;;;2.37;;
69414;SDS011;56608;43.530;-5.652;2023-02-13T04:42:49;3.33;;;2.00;;
69414;SDS011;56608;43.530;-5.652;2023-02-13T04:43:50;4.22;;;2.10;;
69414;SDS011;56608;43.530;-5.652;2023-02-13T04:44:52;4.50;;;2.33;;
69414;SDS011;56608;43.530;-5.652;2023-02-13T04:45:53;3.97;;;1.90;;
69414;SDS011;56608;43.530;-5.652;2023-02-13T04:46:55;4.60;;;2.10;;
69414;SDS011;56608;43.530;-5.652;2023-02-13T04:47:56;4.97;;;2.12;;
69414;SDS011;56608;43.530;-5.652;2023-02-13T04:48:58;7.37;;;2.53;;
69414;SDS011;56608;43.530;-5.652;2023-02-13T04:49:59;5.78;;;2.20;;
69414;SDS011;56608;43.530;-5.652;2023-02-13T04:51:00;4.67;;;2.20;;
69414;SDS011;56608;43.530;-5.652;2023-02-13T04:52:02;6.70;;;2.53;;
69414;SDS011;56608;43.530;-5.652;2023-02-13T04:53:03;3.78;;;1.98;;
69414;SDS011;56608;43.530;-5.652;2023-02-13T04:54:04;6.65;;;2.53;;
69414;SDS011;56608;43.530;-5.652;2023-02-13T04:55:06;4.53;;;2.40;;
69414;SDS011;56608;43.530;-5.652;2023-02-13T04:57:09;4.50;;;1.73;;
69414;SDS011;56608;43.530;-5.652;2023-02-13T04:58:09;2.80;;;1.70;;
69414;SDS011;56608;43.530;-5.652;2023-02-13T04:59:11;5.55;;;1.33;;
69414;SDS011;56608;43.530;-5.652;2023-02-13T05:00:12;5.55;;;1.60;;
69414;SDS011;56608;43.530;-5.652;2023-02-13T05:01:15;2.78;;;1.58;;
69414;SDS011;56608;43.530;-5.652;2023-02-13T05:02:17;1.95;;;1.25;;
69414;SDS011;56608;43.530;-5.652;2023-02-13T05:03:18;7.05;;;1.65;;
69414;SDS011;56608;43.530;-5.652;2023-02-13T05:04:20;3.15;;;1.65;;
69414;SDS011;56608;43.530;-5.652;2023-02-13T05:05:21;4.10;;;1.60;;
69414;SDS011;56608;43.530;-5.652;2023-02-13T05:06:23;2.72;;;1.62;;
69414;SDS011;56608;43.530;-5.652;2023-02-13T05:07:24;5.82;;;1.60;;
69414;SDS011;56608;43.530;-5.652;2023-02-13T05:08:25;6.97;;;1.30;;
69414;SDS011;56608;43.530;-5.652;2023-02-13T05:09:27;7.95;;;1.40;;
69414;SDS011;56608;43.530;-5.652;2023-02-13T05:10:28;2.30;;;1.40;;
69414;SDS011;56608;43.530;-5.652;2023-02-13T05:11:30;3.97;;;1.40;;
69414;SDS011;56608;43.530;-5.652;2023-02-13T05:12:30;3.53;;;1.30;;
69414;SDS011;56608;43.530;-5.652;2023-02-13T05:13:32;2.12;;;1.12;;
69414;SDS011;56608;43.530;-5.652;2023-02-13T05:14:33;5.25;;;1.50;;
69414;SDS011;56608;43.530;-5.652;2023-02-13T05:15:35;4.10;;;1.50;;
69414;SDS011;56608;43.530;-5.652;2023-02-13T05:16:36;2.60;;;1.30;;
69414;SDS011;56608;43.530;-5.652;2023-02-13T05:17:38;8.02;;;1.90;;
69414;SDS011;56608;43.530;-5.652;2023-02-13T05:18:39;3.47;;;1.67;;
69414;SDS011;56608;43.530;-5.652;2023-02-13T05:19:41;4.73;;;1.70;;
69414;SDS011;56608;43.530;-5.652;2023-02-13T05:20:42;2.75;;;1.50;;
69414;SDS011;56608;43.530;-5.652;2023-02-13T05:21:43;6.10;;;1.65;;
69414;SDS011;56608;43.530;-5.652;2023-02-13T05:23:03;3.95;;;1.98;;
69414;SDS011;56608;43.530;-5.652;2023-02-13T05:24:23;7.62;;;2.55;;
69414;SDS011;56608;43.530;-5.652;2023-02-13T05:25:24;6.70;;;3.15;;
69414;SDS011;56608;43.530;-5.652;2023-02-13T05:26:26;6.93;;;3.12;;
69414;SDS011;56608;43.530;-5.652;2023-02-13T05:27:27;7.47;;;3.40;;
69414;SDS011;56608;43.530;-5.652;2023-02-13T05:28:29;5.65;;;3.45;;
69414;SDS011;56608;43.530;-5.652;2023-02-13T05:29:49;9.48;;;5.37;;
69414;SDS011;56608;43.530;-5.652;2023-02-13T05:30:51;10.55;;;6.60;;
69414;SDS011;56608;43.530;-5.652;2023-02-13T05:31:54;12.02;;;6.80;;
69414;SDS011;56608;43.530;-5.652;2023-02-13T05:32:56;11.70;;;6.00;;
69414;SDS011;56608;43.530;-5.652;2023-02-13T05:33:57;11.37;;;6.57;;
69414;SDS011;56608;43.530;-5.652;2023-02-13T05:34:59;12.10;;;5.82;;
69414;SDS011;56608;43.530;-5.652;2023-02-13T05:36:00;13.68;;;5.82;;
69414;SDS011;56608;43.530;-5.652;2023-02-13T05:37:02;10.40;;;6.05;;
69414;SDS011;56608;43.530;-5.652;2023-02-13T05:38:03;12.93;;;6.07;;
69414;SDS011;56608;43.530;-5.652;2023-02-13T05:39:05;9.23;;;5.03;;
69414;SDS011;56608;43.530;-5.652;2023-02-13T05:40:06;9.23;;;5.93;;
69414;SDS011;56608;43.530;-5.652;2023-02-13T05:41:09;12.70;;;7.00;;
69414;SDS011;56608;43.530;-5.652;2023-02-13T05:42:13;13.60;;;7.28;;
69414;SDS011;56608;43.530;-5.652;2023-02-13T05:43:14;8.50;;;4.60;;
69414;SDS011;56608;43.530;-5.652;2023-02-13T05:44:16;6.00;;;3.95;;
69414;SDS011;56608;43.530;-5.652;2023-02-13T05:45:17;8.00;;;3.40;;
69414;SDS011;56608;43.530;-5.652;2023-02-13T05:46:19;6.90;;;3.35;;
69414;SDS011;56608;43.530;-5.652;2023-02-13T05:47:20;10.07;;;6.07;;
69414;SDS011;56608;43.530;-5.652;2023-02-13T05:48:21;12.00;;;5.50;;
69414;SDS011;56608;43.530;-5.652;2023-02-13T05:49:23;9.60;;;5.10;;
69414;SDS011;56608;43.530;-5.652;2023-02-13T05:50:24;7.00;;;3.92;;
69414;SDS011;56608;43.530;-5.652;2023-02-13T05:51:25;10.90;;;4.10;;
69414;SDS011;56608;43.530;-5.652;2023-02-13T05:52:27;7.13;;;4.60;;
69414;SDS011;56608;43.530;-5.652;2023-02-13T05:53:28;11.40;;;5.33;;
69414;SDS011;56608;43.530;-5.652;2023-02-13T05:54:30;9.32;;;5.28;;
69414;SDS011;56608;43.530;-5.652;2023-02-13T05:55:30;12.85;;;7.60;;
69414;SDS011;56608;43.530;-5.652;2023-02-13T05:56:32;14.82;;;8.30;;
69414;SDS011;56608;43.530;-5.652;2023-02-13T05:57:34;16.67;;;8.63;;
69414;SDS011;56608;43.530;-5.652;2023-02-13T05:58:35;17.37;;;8.35;;
69414;SDS011;56608;43.530;-5.652;2023-02-13T05:59:37;14.00;;;7.60;;
69414;SDS011;56608;43.530;-5.652;2023-02-13T06:00:38;14.35;;;8.55;;
69414;SDS011;56608;43.530;-5.652;2023-02-13T06:01:40;13.62;;;7.68;;
69414;SDS011;56608;43.530;-5.652;2023-02-13T06:02:41;12.88;;;8.38;;
69414;SDS011;56608;43.530;-5.652;2023-02-13T06:03:42;18.05;;;9.30;;
69414;SDS011;56608;43.530;-5.652;2023-02-13T06:04:44;16.92;;;9.02;;
69414;SDS011;56608;43.530;-5.652;2023-02-13T06:05:44;17.30;;;8.10;;
69414;SDS011;56608;43.530;-5.652;2023-02-13T06:06:46;16.15;;;7.47;;
69414;SDS011;56608;43.530;-5.652;2023-02-13T06:07:47;12.60;;;7.60;;
69414;SDS011;56608;43.530;-5.652;2023-02-13T06:08:49;10.27;;;6.15;;
69414;SDS011;56608;43.530;-5.652;2023-02-13T06:09:50;9.95;;;6.28;;
69414;SDS011;56608;43.530;-5.652;2023-02-13T06:10:51;11.45;;;4.93;;
69414;SDS011;56608;43.530;-5.652;2023-02-13T06:11:52;7.75;;;4.80;;
69414;SDS011;56608;43.530;-5.652;2023-02-13T06:12:54;9.02;;;4.55;;
69414;SDS011;56608;43.530;-5.652;2023-02-13T06:13:55;8.23;;;5.03;;
69414;SDS011;56608;43.530;-5.652;2023-02-13T06:14:57;9.45;;;4.55;;
69414;SDS011;56608;43.530;-5.652;2023-02-13T06:15:58;7.65;;;4.25;;
69414;SDS011;56608;43.530;-5.652;2023-02-13T06:17:00;8.35;;;4.75;;
69414;SDS011;56608;43.530;-5.652;2023-02-13T06:18:01;8.68;;;4.60;;
69414;SDS011;56608;43.530;-5.652;2023-02-13T06:19:03;6.20;;;4.30;;
69414;SDS011;56608;43.530;-5.652;2023-02-13T06:20:04;8.57;;;4.25;;
69414;SDS011;56608;43.530;-5.652;2023-02-13T06:21:07;7.93;;;4.37;;
69414;SDS011;56608;43.530;-5.652;2023-02-13T06:22:08;10.02;;;3.95;;
69414;SDS011;56608;43.530;-5.652;2023-02-13T06:23:10;8.38;;;3.58;;
69414;SDS011;56608;43.530;-5.652;2023-02-13T06:25:13;5.65;;;3.05;;
69414;SDS011;56608;43.530;-5.652;2023-02-13T06:26:14;4.95;;;2.95;;
69414;SDS011;56608;43.530;-5.652;2023-02-13T06:27:16;4.82;;;2.92;;
69414;SDS011;56608;43.530;-5.652;2023-02-13T06:28:17;6.12;;;3.12;;
69414;SDS011;56608;43.530;-5.652;2023-02-13T06:29:18;5.40;;;2.97;;
69414;SDS011;56608;43.530;-5.652;2023-02-13T06:30:20;3.55;;;2.53;;
69414;SDS011;56608;43.530;-5.652;2023-02-13T06:32:23;7.75;;;2.65;;
69414;SDS011;56608;43.530;-5.652;2023-02-13T06:33:24;4.55;;;2.80;;
69414;SDS011;56608;43.530;-5.652;2023-02-13T06:34:25;4.70;;;2.90;;
69414;SDS011;56608;43.530;-5.652;2023-02-13T06:35:26;5.95;;;3.30;;
69414;SDS011;56608;43.530;-5.652;2023-02-13T06:36:28;8.27;;;3.80;;
69414;SDS011;56608;43.530;-5.652;2023-02-13T06:37:29;5.25;;;2.20;;
69414;SDS011;56608;43.530;-5.652;2023-02-13T06:38:30;6.20;;;3.20;;
69414;SDS011;56608;43.530;-5.652;2023-02-13T06:39:32;5.50;;;3.12;;
69414;SDS011;56608;43.530;-5.652;2023-02-13T06:40:33;5.37;;;2.58;;
69414;SDS011;56608;43.530;-5.652;2023-02-13T06:41:35;9.98;;;2.97;;
69414;SDS011;56608;43.530;-5.652;2023-02-13T06:42:36;5.05;;;3.08;;
69414;SDS011;56608;43.530;-5.652;2023-02-13T06:43:38;5.05;;;2.28;;
69414;SDS011;56608;43.530;-5.652;2023-02-13T06:44:38;5.53;;;3.20;;
69414;SDS011;56608;43.530;-5.652;2023-02-13T06:45:40;4.07;;;2.30;;
69414;SDS011;56608;43.530;-5.652;2023-02-13T06:46:42;5.50;;;2.67;;
69414;SDS011;56608;43.530;-5.652;2023-02-13T06:47:44;5.50;;;2.30;;
69414;SDS011;56608;43.530;-5.652;2023-02-13T06:48:46;4.82;;;2.20;;
69414;SDS011;56608;43.530;-5.652;2023-02-13T06:49:48;5.68;;;2.35;;
69414;SDS011;56608;43.530;-5.652;2023-02-13T06:50:49;4.18;;;2.45;;
69414;SDS011;56608;43.530;-5.652;2023-02-13T06:51:52;4.43;;;2.40;;
69414;SDS011;56608;43.530;-5.652;2023-02-13T06:52:53;6.87;;;2.30;;
69414;SDS011;56608;43.530;-5.652;2023-02-13T06:53:54;5.70;;;2.30;;
69414;SDS011;56608;43.530;-5.652;2023-02-13T06:54:56;6.95;;;2.65;;
69414;SDS011;56608;43.530;-5.652;2023-02-13T06:55:57;7.70;;;2.40;;
69414;SDS011;56608;43.530;-5.652;2023-02-13T06:56:58;11.15;;;2.85;;
69414;SDS011;56608;43.530;-5.652;2023-02-13T06:58:00;5.90;;;2.20;;
69414;SDS011;56608;43.530;-5.652;2023-02-13T06:59:01;5.43;;;2.28;;
69414;SDS011;56608;43.530;-5.652;2023-02-13T07:00:02;5.18;;;2.62;;
69414;SDS011;56608;43.530;-5.652;2023-02-13T07:01:05;7.10;;;2.67;;
69414;SDS011;56608;43.530;-5.652;2023-02-13T07:02:11;5.30;;;2.35;;
69414;SDS011;56608;43.530;-5.652;2023-02-13T07:03:13;7.37;;;2.40;;
69414;SDS011;56608;43.530;-5.652;2023-02-13T07:04:14;6.12;;;2.70;;
69414;SDS011;56608;43.530;-5.652;2023-02-13T07:05:16;5.87;;;2.17;;
69414;SDS011;56608;43.530;-5.652;2023-02-13T07:06:18;4.37;;;2.42;;
69414;SDS011;56608;43.530;-5.652;2023-02-13T07:07:20;5.75;;;2.45;;
69414;SDS011;56608;43.530;-5.652;2023-02-13T07:08:21;4.10;;;2.40;;
69414;SDS011;56608;43.530;-5.652;2023-02-13T07:09:23;5.55;;;2.53;;
69414;SDS011;56608;43.530;-5.652;2023-02-13T07:10:24;4.47;;;2.62;;
69414;SDS011;56608;43.530;-5.652;2023-02-13T07:11:25;5.80;;;2.42;;
69414;SDS011;56608;43.530;-5.652;2023-02-13T07:12:27;5.10;;;2.93;;
69414;SDS011;56608;43.530;-5.652;2023-02-13T07:13:28;7.68;;;3.45;;